<?xml version="1.0" encoding="UTF-8"?>
<gpx xmlns="http://www.topografix.com/GPX/1/1" xmlns:xsi="http://www.w3.org/2001/XMLSchema-instance" version="1.1" xsi:schemaLocation="http://www.topografix.com/GPX/1/1 http://www.topografix.com/GPX/1/1/gpx.xsd">
  <metadata>
    <name>Great Buckeye Challenge Triathlon 2023 - Mini Aquabike</name>
  </metadata>
  <trk>
    <name>Great Buckeye Challenge Triathlon 2023 - Mini Aquabike</name>
    <trkseg>
      <trkpt lat="39.947346" lon="-83.731674">
        <ele>319.946358</ele>
        <time>2024-07-28T08:04:34.000Z</time>
      </trkpt>
      <trkpt lat="39.947363" lon="-83.731673">
        <ele>319.946355</ele>
        <time>2024-07-28T08:04:34.000Z</time>
      </trkpt>
      <trkpt lat="39.947388" lon="-83.731656">
        <ele>319.946363</ele>
        <time>2024-07-28T08:04:34.000Z</time>
      </trkpt>
      <trkpt lat="39.94795" lon="-83.731484">
        <ele>319.946358</ele>
        <time>2024-07-28T08:04:40.000Z</time>
      </trkpt>
      <trkpt lat="39.948168" lon="-83.731379">
        <ele>319.946355</ele>
        <time>2024-07-28T08:04:43.000Z</time>
      </trkpt>
      <trkpt lat="39.948376" lon="-83.731291">
        <ele>320.064156</ele>
        <time>2024-07-28T08:04:45.000Z</time>
      </trkpt>
      <trkpt lat="39.948625" lon="-83.731172">
        <ele>320.254905</ele>
        <time>2024-07-28T08:04:48.000Z</time>
      </trkpt>
      <trkpt lat="39.94877" lon="-83.731064">
        <ele>320.383807</ele>
        <time>2024-07-28T08:04:50.000Z</time>
      </trkpt>
      <trkpt lat="39.948797" lon="-83.730925">
        <ele>320.460301</ele>
        <time>2024-07-28T08:04:51.000Z</time>
      </trkpt>
      <trkpt lat="39.948765" lon="-83.730367">
        <ele>320.768098</ele>
        <time>2024-07-28T08:04:56.000Z</time>
      </trkpt>
      <trkpt lat="39.9488" lon="-83.730147">
        <ele>320.888018</ele>
        <time>2024-07-28T08:04:58.000Z</time>
      </trkpt>
      <trkpt lat="39.948811" lon="-83.729751">
        <ele>321.100784</ele>
        <time>2024-07-28T08:05:01.000Z</time>
      </trkpt>
      <trkpt lat="39.94831" lon="-83.729848">
        <ele>321.217151</ele>
        <time>2024-07-28T08:05:07.000Z</time>
      </trkpt>
      <trkpt lat="39.947789" lon="-83.729842">
        <ele>321.197303</ele>
        <time>2024-07-28T08:05:13.000Z</time>
      </trkpt>
      <trkpt lat="39.947315" lon="-83.729788">
        <ele>321.178238</ele>
        <time>2024-07-28T08:05:18.000Z</time>
      </trkpt>
      <trkpt lat="39.946856" lon="-83.729696">
        <ele>321.160794</ele>
        <time>2024-07-28T08:05:23.000Z</time>
      </trkpt>
      <trkpt lat="39.945969" lon="-83.729505">
        <ele>320.521502</ele>
        <time>2024-07-28T08:05:33.000Z</time>
      </trkpt>
      <trkpt lat="39.945516" lon="-83.729443">
        <ele>320.192583</ele>
        <time>2024-07-28T08:05:38.000Z</time>
      </trkpt>
      <trkpt lat="39.945191" lon="-83.729449">
        <ele>319.959778</ele>
        <time>2024-07-28T08:05:42.000Z</time>
      </trkpt>
      <trkpt lat="39.944885" lon="-83.72945">
        <ele>319.78492</ele>
        <time>2024-07-28T08:05:45.000Z</time>
      </trkpt>
      <trkpt lat="39.944429" lon="-83.729499">
        <ele>319.589332</ele>
        <time>2024-07-28T08:05:50.000Z</time>
      </trkpt>
      <trkpt lat="39.943165" lon="-83.729667">
        <ele>319.098138</ele>
        <time>2024-07-28T08:06:04.000Z</time>
      </trkpt>
      <trkpt lat="39.942363" lon="-83.729762">
        <ele>319.186841</ele>
        <time>2024-07-28T08:06:13.000Z</time>
      </trkpt>
      <trkpt lat="39.94188" lon="-83.729816">
        <ele>319.241542</ele>
        <time>2024-07-28T08:06:18.000Z</time>
      </trkpt>
      <trkpt lat="39.94071" lon="-83.729963">
        <ele>319.366208</ele>
        <time>2024-07-28T08:06:31.000Z</time>
      </trkpt>
      <trkpt lat="39.939837" lon="-83.730074">
        <ele>319.455981</ele>
        <time>2024-07-28T08:06:41.000Z</time>
      </trkpt>
      <trkpt lat="39.938161" lon="-83.730331">
        <ele>319.229391</ele>
        <time>2024-07-28T08:07:00.000Z</time>
      </trkpt>
      <trkpt lat="39.938303" lon="-83.727393">
        <ele>320.185947</ele>
        <time>2024-07-28T08:07:25.000Z</time>
      </trkpt>
      <trkpt lat="39.938326" lon="-83.72679">
        <ele>320.258479</ele>
        <time>2024-07-28T08:07:30.000Z</time>
      </trkpt>
      <trkpt lat="39.938354" lon="-83.726008">
        <ele>320.354295</ele>
        <time>2024-07-28T08:07:37.000Z</time>
      </trkpt>
      <trkpt lat="39.938362" lon="-83.725886">
        <ele>320.368439</ele>
        <time>2024-07-28T08:07:38.000Z</time>
      </trkpt>
      <trkpt lat="39.938366" lon="-83.725812">
        <ele>320.37905</ele>
        <time>2024-07-28T08:07:39.000Z</time>
      </trkpt>
      <trkpt lat="39.938391" lon="-83.725173">
        <ele>320.437342</ele>
        <time>2024-07-28T08:07:44.000Z</time>
      </trkpt>
      <trkpt lat="39.938396" lon="-83.725073">
        <ele>320.432127</ele>
        <time>2024-07-28T08:07:45.000Z</time>
      </trkpt>
      <trkpt lat="39.938425" lon="-83.724459">
        <ele>320.399594</ele>
        <time>2024-07-28T08:07:50.000Z</time>
      </trkpt>
      <trkpt lat="39.938504" lon="-83.723046">
        <ele>320.325953</ele>
        <time>2024-07-28T08:08:02.000Z</time>
      </trkpt>
      <trkpt lat="39.938589" lon="-83.72133">
        <ele>320.611046</ele>
        <time>2024-07-28T08:08:17.000Z</time>
      </trkpt>
      <trkpt lat="39.93862" lon="-83.720926">
        <ele>320.686959</ele>
        <time>2024-07-28T08:08:20.000Z</time>
      </trkpt>
      <trkpt lat="39.938613" lon="-83.720832">
        <ele>320.700758</ele>
        <time>2024-07-28T08:08:21.000Z</time>
      </trkpt>
      <trkpt lat="39.938829" lon="-83.716492">
        <ele>319.657423</ele>
        <time>2024-07-28T08:08:58.000Z</time>
      </trkpt>
      <trkpt lat="39.938888" lon="-83.716041">
        <ele>319.468816</ele>
        <time>2024-07-28T08:09:02.000Z</time>
      </trkpt>
      <trkpt lat="39.938939" lon="-83.71458">
        <ele>319.306078</ele>
        <time>2024-07-28T08:09:14.000Z</time>
      </trkpt>
      <trkpt lat="39.938957" lon="-83.714429">
        <ele>319.291791</ele>
        <time>2024-07-28T08:09:15.000Z</time>
      </trkpt>
      <trkpt lat="39.939106" lon="-83.710598">
        <ele>321.658878</ele>
        <time>2024-07-28T08:09:48.000Z</time>
      </trkpt>
      <trkpt lat="39.939143" lon="-83.710133">
        <ele>321.862181</ele>
        <time>2024-07-28T08:09:52.000Z</time>
      </trkpt>
      <trkpt lat="39.939315" lon="-83.706522">
        <ele>322.792191</ele>
        <time>2024-07-28T08:10:23.000Z</time>
      </trkpt>
      <trkpt lat="39.939526" lon="-83.702898">
        <ele>325.662289</ele>
        <time>2024-07-28T08:10:54.000Z</time>
      </trkpt>
      <trkpt lat="39.939665" lon="-83.70106">
        <ele>327.85645</ele>
        <time>2024-07-28T08:11:10.000Z</time>
      </trkpt>
      <trkpt lat="39.939758" lon="-83.700412">
        <ele>328.731824</ele>
        <time>2024-07-28T08:11:16.000Z</time>
      </trkpt>
      <trkpt lat="39.939891" lon="-83.699526">
        <ele>329.904463</ele>
        <time>2024-07-28T08:11:24.000Z</time>
      </trkpt>
      <trkpt lat="39.940021" lon="-83.69848">
        <ele>330.708493</ele>
        <time>2024-07-28T08:11:33.000Z</time>
      </trkpt>
      <trkpt lat="39.940086" lon="-83.698085">
        <ele>331.016884</ele>
        <time>2024-07-28T08:11:36.000Z</time>
      </trkpt>
      <trkpt lat="39.940486" lon="-83.695015">
        <ele>332.844325</ele>
        <time>2024-07-28T08:12:03.000Z</time>
      </trkpt>
      <trkpt lat="39.940544" lon="-83.694619">
        <ele>332.973704</ele>
        <time>2024-07-28T08:12:06.000Z</time>
      </trkpt>
      <trkpt lat="39.941053" lon="-83.691026">
        <ele>333.843657</ele>
        <time>2024-07-28T08:12:37.000Z</time>
      </trkpt>
      <trkpt lat="39.941277" lon="-83.689251">
        <ele>334.084467</ele>
        <time>2024-07-28T08:12:52.000Z</time>
      </trkpt>
      <trkpt lat="39.941593" lon="-83.687074">
        <ele>334.251851</ele>
        <time>2024-07-28T08:13:11.000Z</time>
      </trkpt>
      <trkpt lat="39.941798" lon="-83.68529">
        <ele>334.324121</ele>
        <time>2024-07-28T08:13:26.000Z</time>
      </trkpt>
      <trkpt lat="39.941868" lon="-83.683914">
        <ele>334.373903</ele>
        <time>2024-07-28T08:13:38.000Z</time>
      </trkpt>
      <trkpt lat="39.941915" lon="-83.68194">
        <ele>334.156356</ele>
        <time>2024-07-28T08:13:55.000Z</time>
      </trkpt>
      <trkpt lat="39.94461" lon="-83.681837">
        <ele>332.792478</ele>
        <time>2024-07-28T08:14:25.000Z</time>
      </trkpt>
      <trkpt lat="39.945499" lon="-83.681796">
        <ele>332.039119</ele>
        <time>2024-07-28T08:14:35.000Z</time>
      </trkpt>
      <trkpt lat="39.946392" lon="-83.681682">
        <ele>331.359833</ele>
        <time>2024-07-28T08:14:45.000Z</time>
      </trkpt>
      <trkpt lat="39.946731" lon="-83.681649">
        <ele>331.235087</ele>
        <time>2024-07-28T08:14:49.000Z</time>
      </trkpt>
      <trkpt lat="39.948145" lon="-83.681436">
        <ele>330.755536</ele>
        <time>2024-07-28T08:15:05.000Z</time>
      </trkpt>
      <trkpt lat="39.949375" lon="-83.681273">
        <ele>330.756021</ele>
        <time>2024-07-28T08:15:19.000Z</time>
      </trkpt>
      <trkpt lat="39.948147" lon="-83.681446">
        <ele>330.812666</ele>
        <time>2024-07-28T08:15:33.000Z</time>
      </trkpt>
      <trkpt lat="39.946723" lon="-83.681631">
        <ele>331.206852</ele>
        <time>2024-07-28T08:15:49.000Z</time>
      </trkpt>
      <trkpt lat="39.946397" lon="-83.681691">
        <ele>331.448438</ele>
        <time>2024-07-28T08:15:53.000Z</time>
      </trkpt>
      <trkpt lat="39.945502" lon="-83.681792">
        <ele>332.10296</ele>
        <time>2024-07-28T08:16:03.000Z</time>
      </trkpt>
      <trkpt lat="39.944624" lon="-83.681845">
        <ele>332.735358</ele>
        <time>2024-07-28T08:16:13.000Z</time>
      </trkpt>
      <trkpt lat="39.941908" lon="-83.681938">
        <ele>334.250084</ele>
        <time>2024-07-28T08:16:43.000Z</time>
      </trkpt>
      <trkpt lat="39.94188" lon="-83.683921">
        <ele>334.345495</ele>
        <time>2024-07-28T08:17:00.000Z</time>
      </trkpt>
      <trkpt lat="39.941811" lon="-83.685289">
        <ele>334.331199</ele>
        <time>2024-07-28T08:17:12.000Z</time>
      </trkpt>
      <trkpt lat="39.941583" lon="-83.687064">
        <ele>334.262637</ele>
        <time>2024-07-28T08:17:27.000Z</time>
      </trkpt>
      <trkpt lat="39.941285" lon="-83.689257">
        <ele>334.088206</ele>
        <time>2024-07-28T08:17:46.000Z</time>
      </trkpt>
      <trkpt lat="39.941052" lon="-83.691026">
        <ele>333.852646</ele>
        <time>2024-07-28T08:18:01.000Z</time>
      </trkpt>
      <trkpt lat="39.940546" lon="-83.694624">
        <ele>332.921721</ele>
        <time>2024-07-28T08:18:32.000Z</time>
      </trkpt>
      <trkpt lat="39.940495" lon="-83.695012">
        <ele>332.759481</ele>
        <time>2024-07-28T08:18:35.000Z</time>
      </trkpt>
      <trkpt lat="39.940074" lon="-83.698086">
        <ele>331.106284</ele>
        <time>2024-07-28T08:19:02.000Z</time>
      </trkpt>
      <trkpt lat="39.940022" lon="-83.698481">
        <ele>330.792498</ele>
        <time>2024-07-28T08:19:05.000Z</time>
      </trkpt>
      <trkpt lat="39.939891" lon="-83.699527">
        <ele>329.714819</ele>
        <time>2024-07-28T08:19:14.000Z</time>
      </trkpt>
      <trkpt lat="39.939757" lon="-83.700408">
        <ele>328.81209</ele>
        <time>2024-07-28T08:19:22.000Z</time>
      </trkpt>
      <trkpt lat="39.939666" lon="-83.701048">
        <ele>327.989277</ele>
        <time>2024-07-28T08:19:28.000Z</time>
      </trkpt>
      <trkpt lat="39.939535" lon="-83.702896">
        <ele>325.448311</ele>
        <time>2024-07-28T08:19:44.000Z</time>
      </trkpt>
      <trkpt lat="39.93932" lon="-83.706516">
        <ele>322.969879</ele>
        <time>2024-07-28T08:20:15.000Z</time>
      </trkpt>
      <trkpt lat="39.939137" lon="-83.710132">
        <ele>322.050635</ele>
        <time>2024-07-28T08:20:46.000Z</time>
      </trkpt>
      <trkpt lat="39.939116" lon="-83.710592">
        <ele>321.695349</ele>
        <time>2024-07-28T08:20:50.000Z</time>
      </trkpt>
      <trkpt lat="39.938957" lon="-83.714421">
        <ele>318.982773</ele>
        <time>2024-07-28T08:21:23.000Z</time>
      </trkpt>
      <trkpt lat="39.938937" lon="-83.714578">
        <ele>318.873129</ele>
        <time>2024-07-28T08:21:24.000Z</time>
      </trkpt>
      <trkpt lat="39.938886" lon="-83.71604">
        <ele>319.529632</ele>
        <time>2024-07-28T08:21:36.000Z</time>
      </trkpt>
      <trkpt lat="39.938823" lon="-83.716504">
        <ele>319.768962</ele>
        <time>2024-07-28T08:21:40.000Z</time>
      </trkpt>
      <trkpt lat="39.938608" lon="-83.72084">
        <ele>320.599523</ele>
        <time>2024-07-28T08:22:17.000Z</time>
      </trkpt>
      <trkpt lat="39.938609" lon="-83.720913">
        <ele>320.600104</ele>
        <time>2024-07-28T08:22:18.000Z</time>
      </trkpt>
      <trkpt lat="39.938593" lon="-83.721338">
        <ele>320.603353</ele>
        <time>2024-07-28T08:22:22.000Z</time>
      </trkpt>
      <trkpt lat="39.938499" lon="-83.723061">
        <ele>320.416918</ele>
        <time>2024-07-28T08:22:37.000Z</time>
      </trkpt>
      <trkpt lat="39.938431" lon="-83.72446">
        <ele>320.321244</ele>
        <time>2024-07-28T08:22:49.000Z</time>
      </trkpt>
      <trkpt lat="39.93839" lon="-83.72507">
        <ele>320.372641</ele>
        <time>2024-07-28T08:22:54.000Z</time>
      </trkpt>
      <trkpt lat="39.938385" lon="-83.725177">
        <ele>320.380877</ele>
        <time>2024-07-28T08:22:55.000Z</time>
      </trkpt>
      <trkpt lat="39.938357" lon="-83.725803">
        <ele>320.43363</ele>
        <time>2024-07-28T08:23:00.000Z</time>
      </trkpt>
      <trkpt lat="39.93836" lon="-83.725896">
        <ele>320.440869</ele>
        <time>2024-07-28T08:23:01.000Z</time>
      </trkpt>
      <trkpt lat="39.93835" lon="-83.726013">
        <ele>320.450504</ele>
        <time>2024-07-28T08:23:02.000Z</time>
      </trkpt>
      <trkpt lat="39.938313" lon="-83.726787">
        <ele>320.330398</ele>
        <time>2024-07-28T08:23:09.000Z</time>
      </trkpt>
      <trkpt lat="39.938291" lon="-83.72739">
        <ele>320.126045</ele>
        <time>2024-07-28T08:23:14.000Z</time>
      </trkpt>
      <trkpt lat="39.938163" lon="-83.730322">
        <ele>319.320884</ele>
        <time>2024-07-28T08:23:39.000Z</time>
      </trkpt>
      <trkpt lat="39.939827" lon="-83.730076">
        <ele>319.397127</ele>
        <time>2024-07-28T08:23:58.000Z</time>
      </trkpt>
      <trkpt lat="39.940706" lon="-83.729961">
        <ele>319.484461</ele>
        <time>2024-07-28T08:24:08.000Z</time>
      </trkpt>
      <trkpt lat="39.941877" lon="-83.729811">
        <ele>319.176082</ele>
        <time>2024-07-28T08:24:21.000Z</time>
      </trkpt>
      <trkpt lat="39.942375" lon="-83.729753">
        <ele>319.079455</ele>
        <time>2024-07-28T08:24:27.000Z</time>
      </trkpt>
      <trkpt lat="39.943159" lon="-83.729658">
        <ele>319.191466</ele>
        <time>2024-07-28T08:24:36.000Z</time>
      </trkpt>
      <trkpt lat="39.944422" lon="-83.729514">
        <ele>319.54191</ele>
        <time>2024-07-28T08:24:50.000Z</time>
      </trkpt>
      <trkpt lat="39.944885" lon="-83.729458">
        <ele>319.835809</ele>
        <time>2024-07-28T08:24:55.000Z</time>
      </trkpt>
      <trkpt lat="39.94518" lon="-83.729434">
        <ele>320.03719</ele>
        <time>2024-07-28T08:24:58.000Z</time>
      </trkpt>
      <trkpt lat="39.945508" lon="-83.72944">
        <ele>320.244881</ele>
        <time>2024-07-28T08:25:02.000Z</time>
      </trkpt>
      <trkpt lat="39.945967" lon="-83.729502">
        <ele>320.528368</ele>
        <time>2024-07-28T08:25:07.000Z</time>
      </trkpt>
      <trkpt lat="39.946866" lon="-83.729699">
        <ele>321.012938</ele>
        <time>2024-07-28T08:25:17.000Z</time>
      </trkpt>
      <trkpt lat="39.947302" lon="-83.729784">
        <ele>321.250945</ele>
        <time>2024-07-28T08:25:22.000Z</time>
      </trkpt>
      <trkpt lat="39.947804" lon="-83.729842">
        <ele>321.380106</ele>
        <time>2024-07-28T08:25:28.000Z</time>
      </trkpt>
      <trkpt lat="39.948308" lon="-83.729853">
        <ele>321.173431</ele>
        <time>2024-07-28T08:25:34.000Z</time>
      </trkpt>
      <trkpt lat="39.948795" lon="-83.729753">
        <ele>320.970704</ele>
        <time>2024-07-28T08:25:39.000Z</time>
      </trkpt>
      <trkpt lat="39.948806" lon="-83.730144">
        <ele>320.849857</ele>
        <time>2024-07-28T08:25:42.000Z</time>
      </trkpt>
      <trkpt lat="39.948766" lon="-83.730373">
        <ele>320.781721</ele>
        <time>2024-07-28T08:25:44.000Z</time>
      </trkpt>
      <trkpt lat="39.948804" lon="-83.730928">
        <ele>320.68081195</ele>
        <time>2024-07-28T08:25:49.000Z</time>
      </trkpt>
      <trkpt lat="39.94877" lon="-83.731062">
        <ele>320.655250294</ele>
        <time>2024-07-28T08:25:50.000Z</time>
      </trkpt>
      <trkpt lat="39.948624" lon="-83.73117">
        <ele>320.615601169</ele>
        <time>2024-07-28T08:25:52.000Z</time>
      </trkpt>
      <trkpt lat="39.94836" lon="-83.731287">
        <ele>320.549735673</ele>
        <time>2024-07-28T08:25:55.000Z</time>
      </trkpt>
      <trkpt lat="39.948176" lon="-83.731376">
        <ele>320.503377488</ele>
        <time>2024-07-28T08:25:57.000Z</time>
      </trkpt>
      <trkpt lat="39.947947" lon="-83.731488">
        <ele>320.445603622</ele>
        <time>2024-07-28T08:26:00.000Z</time>
      </trkpt>
      <trkpt lat="39.947378" lon="-83.731667">
        <ele>320.307335761</ele>
        <time>2024-07-28T08:26:07.000Z</time>
      </trkpt>
      <trkpt lat="39.947358" lon="-83.731669">
        <ele>320.302597325</ele>
        <time>2024-07-28T08:26:07.000Z</time>
      </trkpt>
    </trkseg>
  </trk>
</gpx>

<!--
Performance optimized by W3 Total Cache. Learn more: https://www.boldgrid.com/w3-total-cache/?utm_source=w3tc&utm_medium=footer_comment&utm_campaign=free_plugin

Page Caching using Disk: Enhanced{w3tc_pagecache_reject_reason} 

Served from: www.aquabike.world @ 2026-05-10 18:49:45 by W3 Total Cache
-->